createdAt,value
2023-12-11T00:00:39.629Z,-3.27
2023-12-11T00:03:09.374Z,-3.23
2023-12-11T00:05:39.998Z,-3.24
2023-12-11T00:08:09.871Z,-3.30
2023-12-11T00:10:37.377Z,-3.37
2023-12-11T00:13:07.668Z,-3.46
2023-12-11T00:15:35.567Z,-3.45
2023-12-11T00:18:03.486Z,-3.36
2023-12-11T00:20:31.178Z,-3.33
2023-12-11T00:22:58.964Z,-3.36
2023-12-11T00:25:28.375Z,-3.40
2023-12-11T00:27:56.128Z,-3.45
2023-12-11T00:30:24.077Z,-3.51
2023-12-11T00:32:53.116Z,-3.56
2023-12-11T00:35:20.615Z,-3.57
2023-12-11T00:37:48.285Z,-3.53
2023-12-11T00:40:16.007Z,-3.51
2023-12-11T00:44:19.977Z,-3.45
2023-12-11T00:46:47.586Z,-3.43
2023-12-11T00:49:15.132Z,-3.41
2023-12-11T00:51:44.202Z,-3.39
2023-12-11T00:54:12.155Z,-3.38
2023-12-11T00:56:39.940Z,-3.32
2023-12-11T00:59:07.618Z,-3.22
2023-12-11T01:01:35.173Z,-3.22
2023-12-11T01:04:04.835Z,-3.32
2023-12-11T01:06:32.500Z,-3.44
2023-12-11T01:09:00.094Z,-3.51
2023-12-11T01:11:27.683Z,-3.55
2023-12-11T01:13:55.216Z,-3.59
2023-12-11T01:16:23.893Z,-3.55
2023-12-11T01:18:52.196Z,-3.45
2023-12-11T01:21:19.825Z,-3.38
2023-12-11T01:23:49.443Z,-3.37
2023-12-11T01:26:16.967Z,-3.46
2023-12-11T01:28:44.632Z,-3.55
2023-12-11T01:31:12.285Z,-3.60
2023-12-11T01:33:39.941Z,-3.64
2023-12-11T01:36:07.803Z,-3.63
2023-12-11T01:38:35.319Z,-3.59
2023-12-11T01:41:03.624Z,-3.57
2023-12-11T01:43:31.191Z,-3.55
2023-12-11T01:46:06.633Z,-3.53
2023-12-11T01:48:35.441Z,-3.52
2023-12-11T01:51:04.126Z,-3.57
2023-12-11T01:53:31.730Z,-3.60
2023-12-11T01:56:01.085Z,-3.61
2023-12-11T01:58:30.939Z,-3.57
2023-12-11T02:00:58.993Z,-3.51
2023-12-11T02:03:26.708Z,-3.49
2023-12-11T02:05:54.333Z,-3.50
2023-12-11T02:08:21.877Z,-3.51
2023-12-11T02:10:49.958Z,-3.53
2023-12-11T02:13:17.652Z,-3.57
2023-12-11T02:15:46.151Z,-3.62
2023-12-11T02:18:15.824Z,-3.61
2023-12-11T02:20:44.235Z,-3.57
2023-12-11T02:23:19.464Z,-3.53
2023-12-11T02:25:47.641Z,-3.50
2023-12-11T02:28:16.096Z,-3.47
2023-12-11T02:30:51.109Z,-3.53
2023-12-11T02:33:19.279Z,-3.62
2023-12-11T02:35:46.937Z,-3.64
2023-12-11T02:38:14.445Z,-3.60
2023-12-11T02:40:42.252Z,-3.59
2023-12-11T02:43:10.170Z,-3.61
2023-12-11T02:45:37.729Z,-3.65
2023-12-11T02:48:06.645Z,-3.72
2023-12-11T02:50:34.389Z,-3.76
2023-12-11T02:53:03.034Z,-3.80
2023-12-11T02:55:30.741Z,-3.78
2023-12-11T02:57:59.586Z,-3.70
2023-12-11T03:00:31.996Z,-3.62
2023-12-11T03:02:59.826Z,-3.61
2023-12-11T03:05:27.498Z,-3.62
2023-12-11T03:07:55.024Z,-3.66
2023-12-11T03:10:24.438Z,-3.68
2023-12-11T03:12:53.706Z,-3.68
2023-12-11T03:15:21.350Z,-3.65
2023-12-11T03:17:49.251Z,-3.65
2023-12-11T03:20:16.806Z,-3.68
2023-12-11T03:22:44.582Z,-3.70
2023-12-11T03:25:12.346Z,-3.71
2023-12-11T03:27:40.003Z,-3.74
2023-12-11T03:30:08.233Z,-3.77
2023-12-11T03:32:36.077Z,-3.78
2023-12-11T03:35:04.648Z,-3.76
2023-12-11T03:37:33.936Z,-3.73
2023-12-11T03:40:03.261Z,-3.71
2023-12-11T03:42:30.912Z,-3.72
2023-12-11T03:44:59.792Z,-3.73
2023-12-11T03:47:27.584Z,-3.76
2023-12-11T03:49:55.955Z,-3.80
2023-12-11T03:52:23.551Z,-3.87
2023-12-11T03:54:51.211Z,-3.93
2023-12-11T03:57:18.966Z,-3.88
2023-12-11T03:59:46.554Z,-3.77
2023-12-11T04:02:14.254Z,-3.75
2023-12-11T04:04:42.241Z,-3.76
2023-12-11T04:07:10.128Z,-3.78
2023-12-11T04:09:37.737Z,-3.82
2023-12-11T04:12:07.817Z,-3.84
2023-12-11T04:14:36.128Z,-3.82
2023-12-11T04:17:03.794Z,-3.74
2023-12-11T04:19:31.420Z,-3.63
2023-12-11T04:21:59.679Z,-3.59
2023-12-11T04:24:27.344Z,-3.55
2023-12-11T04:26:54.948Z,-3.52
2023-12-11T04:29:22.640Z,-3.51
2023-12-11T04:31:50.158Z,-3.50
2023-12-11T04:34:17.744Z,-3.49
2023-12-11T04:36:45.608Z,-3.42
2023-12-11T04:39:14.098Z,-3.33
2023-12-11T04:41:41.890Z,-3.32
2023-12-11T04:44:09.439Z,-3.37
2023-12-11T04:46:39.331Z,-3.40
2023-12-11T04:49:07.058Z,-3.46
2023-12-11T04:51:34.769Z,-3.55
2023-12-11T04:54:03.195Z,-3.63
2023-12-11T04:56:31.940Z,-3.62
2023-12-11T04:58:59.596Z,-3.58
2023-12-11T05:01:28.227Z,-3.56
2023-12-11T05:03:55.851Z,-3.56
2023-12-11T05:06:23.339Z,-3.59
2023-12-11T05:08:53.001Z,-3.63
2023-12-11T05:11:22.454Z,-3.66
2023-12-11T05:13:50.143Z,-3.69
2023-12-11T05:16:17.981Z,-3.70
2023-12-11T05:18:45.605Z,-3.64
2023-12-11T05:21:14.888Z,-3.58
2023-12-11T05:23:43.176Z,-3.54
2023-12-11T05:26:10.767Z,-3.52
2023-12-11T05:28:38.306Z,-3.57
2023-12-11T05:31:07.576Z,-3.63
2023-12-11T05:33:35.427Z,-3.68
2023-12-11T05:36:03.309Z,-3.68
2023-12-11T05:38:30.953Z,-3.64
2023-12-11T05:41:01.179Z,-3.63
2023-12-11T05:43:28.746Z,-3.61
2023-12-11T05:45:56.353Z,-3.61
2023-12-11T05:48:24.317Z,-3.66
2023-12-11T05:50:53.071Z,-3.72
2023-12-11T05:53:21.810Z,-3.76
2023-12-11T05:55:49.362Z,-3.77
2023-12-11T05:58:17.573Z,-3.71
2023-12-11T06:00:46.436Z,-3.64
2023-12-11T06:03:15.184Z,-3.59
2023-12-11T06:05:42.923Z,-3.58
2023-12-11T06:08:11.955Z,-3.61
2023-12-11T06:10:39.545Z,-3.66
2023-12-11T06:13:08.344Z,-3.74
2023-12-11T06:15:35.957Z,-3.78
2023-12-11T06:18:03.837Z,-3.76
2023-12-11T06:20:31.506Z,-3.65
2023-12-11T06:22:59.348Z,-3.60
2023-12-11T06:25:26.916Z,-3.60
2023-12-11T06:27:54.585Z,-3.63
2023-12-11T06:30:23.625Z,-3.70
2023-12-11T06:32:51.261Z,-3.78
2023-12-11T06:35:20.498Z,-3.84
2023-12-11T06:37:48.096Z,-3.88
2023-12-11T06:40:15.735Z,-3.87
2023-12-11T06:42:43.328Z,-3.83
2023-12-11T06:45:12.076Z,-3.79
2023-12-11T06:47:39.715Z,-3.77
2023-12-11T06:50:07.716Z,-3.74
2023-12-11T06:52:35.401Z,-3.74
2023-12-11T06:55:04.042Z,-3.74
2023-12-11T06:57:32.126Z,-3.74
2023-12-11T06:59:59.826Z,-3.65
2023-12-11T07:02:28.301Z,-3.54
2023-12-11T07:04:56.220Z,-3.50
2023-12-11T07:07:23.979Z,-3.49
2023-12-11T07:09:51.673Z,-3.46
2023-12-11T07:12:19.427Z,-3.45
2023-12-11T07:14:48.256Z,-3.44
2023-12-11T07:17:15.819Z,-3.43
2023-12-11T07:19:43.829Z,-3.42
2023-12-11T07:22:11.473Z,-3.38
2023-12-11T07:24:39.090Z,-3.30
2023-12-11T07:27:07.399Z,-3.27
2023-12-11T07:29:34.929Z,-3.29
2023-12-11T07:32:02.524Z,-3.32
2023-12-11T07:34:31.216Z,-3.32
2023-12-11T07:36:59.342Z,-3.29
2023-12-11T07:39:27.367Z,-3.22
2023-12-11T07:41:56.002Z,-3.10
2023-12-11T07:44:26.109Z,-2.94
2023-12-11T07:46:55.098Z,-2.89
2023-12-11T07:49:23.627Z,-2.86
2023-12-11T07:51:53.120Z,-2.80
2023-12-11T07:54:23.785Z,-2.77
2023-12-11T07:56:59.126Z,-2.76
2023-12-11T07:59:26.833Z,-2.75
2023-12-11T08:01:54.570Z,-2.70
2023-12-11T08:04:25.107Z,-2.57
2023-12-11T08:06:53.148Z,-2.48
2023-12-11T08:09:21.503Z,-2.44
2023-12-11T08:11:50.762Z,-2.42
2023-12-11T08:14:18.655Z,-2.41
2023-12-11T08:16:46.596Z,-2.39
2023-12-11T08:19:18.589Z,-2.38
2023-12-11T08:21:48.720Z,-2.34
2023-12-11T08:24:17.728Z,-2.21
2023-12-11T08:26:45.478Z,-2.04
2023-12-11T08:29:13.171Z,-1.93
2023-12-11T08:31:42.072Z,-1.87
2023-12-11T08:34:10.087Z,-1.80
2023-12-11T08:36:40.701Z,-1.76
2023-12-11T08:39:09.520Z,-1.72
2023-12-11T08:41:38.475Z,-1.71
2023-12-11T08:44:10.138Z,-1.70
2023-12-11T08:46:41.687Z,-1.64
2023-12-11T08:49:11.453Z,-1.53
2023-12-11T08:51:39.840Z,-1.49
2023-12-11T08:54:07.644Z,-1.49
2023-12-11T08:56:35.197Z,-1.52
2023-12-11T08:59:03.004Z,-1.55
2023-12-11T09:01:32.376Z,-1.55
2023-12-11T09:04:03.454Z,-1.51
2023-12-11T09:06:31.038Z,-1.45
2023-12-11T09:08:58.767Z,-1.37
2023-12-11T09:11:29.622Z,-1.27
2023-12-11T09:14:00.207Z,-1.24
2023-12-11T09:16:28.283Z,-1.26
2023-12-11T09:18:56.303Z,-1.27
2023-12-11T09:21:24.056Z,-1.28
2023-12-11T09:23:51.934Z,-1.25
2023-12-11T09:26:20.203Z,-1.23
2023-12-11T09:28:52.207Z,-1.17
2023-12-11T09:31:24.880Z,-1.07
2023-12-11T09:33:53.107Z,-1.00
2023-12-11T09:36:26.407Z,-0.97
2023-12-11T09:38:57.459Z,-0.96
2023-12-11T09:41:30.134Z,-0.92
2023-12-11T09:43:58.870Z,-0.94
2023-12-11T09:46:26.505Z,-1.00
2023-12-11T09:48:54.219Z,-1.00
2023-12-11T09:51:22.498Z,-0.95
2023-12-11T09:53:50.133Z,-0.91
2023-12-11T09:56:17.719Z,-0.89
2023-12-11T09:58:45.470Z,-0.87
2023-12-11T10:01:13.672Z,-0.89
2023-12-11T10:03:41.441Z,-0.93
2023-12-11T10:06:09.339Z,-0.92
2023-12-11T10:08:44.062Z,-0.84
2023-12-11T10:11:13.035Z,-0.75
2023-12-11T10:13:41.138Z,-0.69
2023-12-11T10:16:32.513Z,-0.68
2023-12-11T10:19:02.027Z,-0.68
2023-12-11T10:21:40.373Z,-0.71
2023-12-11T10:24:17.742Z,-0.74
2023-12-11T10:26:46.896Z,-0.66
2023-12-11T10:29:20.104Z,-0.48
2023-12-11T10:31:47.806Z,-0.31
2023-12-11T10:34:16.728Z,-0.22
2023-12-11T10:36:51.726Z,-0.15
2023-12-11T10:39:24.588Z,-0.10
2023-12-11T10:41:53.719Z,-0.00
2023-12-11T10:44:42.773Z,0.09
2023-12-11T10:47:14.772Z,0.23
2023-12-11T10:49:42.733Z,0.41
2023-12-11T10:52:10.652Z,0.55
2023-12-11T10:54:39.486Z,0.58
2023-12-11T10:59:38.522Z,0.40
2023-12-11T11:02:06.383Z,0.36
2023-12-11T11:04:35.863Z,0.34
2023-12-11T11:07:03.596Z,0.34
2023-12-11T11:09:34.847Z,0.40
2023-12-11T11:12:09.546Z,0.50
2023-12-11T11:14:44.195Z,0.58
2023-12-11T11:17:12.724Z,0.61
2023-12-11T11:20:09.737Z,0.62
2023-12-11T11:22:41.071Z,0.62
2023-12-11T11:25:34.715Z,0.63
2023-12-11T11:28:02.607Z,0.63
2023-12-11T11:30:42.811Z,0.58
2023-12-11T11:33:10.723Z,0.57
2023-12-11T11:35:53.990Z,0.61
2023-12-11T11:38:22.936Z,0.64
2023-12-11T11:40:52.812Z,0.65
2023-12-11T11:43:20.642Z,0.65
2023-12-11T11:45:54.876Z,0.65
2023-12-11T11:48:22.576Z,0.63
2023-12-11T11:50:52.256Z,0.62
2023-12-11T11:53:20.766Z,0.71
2023-12-11T11:55:48.610Z,0.84
2023-12-11T11:58:16.608Z,0.95
2023-12-11T12:00:44.756Z,0.98
2023-12-11T12:03:13.276Z,0.97
2023-12-11T12:05:57.124Z,0.95
2023-12-11T12:08:25.957Z,0.90
2023-12-11T12:10:57.569Z,0.96
2023-12-11T12:13:25.224Z,1.04
2023-12-11T12:15:54.292Z,1.05
2023-12-11T12:18:22.216Z,1.03
2023-12-11T12:21:05.644Z,0.99
2023-12-11T12:23:36.372Z,0.93
2023-12-11T12:26:04.366Z,0.87
2023-12-11T12:28:32.142Z,0.82
2023-12-11T12:30:59.884Z,0.85
2023-12-11T12:33:27.675Z,0.92
2023-12-11T12:35:55.416Z,0.91
2023-12-11T12:38:23.030Z,0.87
2023-12-11T12:40:52.970Z,0.83
2023-12-11T12:43:20.899Z,0.76
2023-12-11T12:45:49.334Z,0.69
2023-12-11T12:48:17.026Z,0.68
2023-12-11T12:50:44.660Z,0.75
2023-12-11T12:53:14.503Z,0.75
2023-12-11T12:55:42.126Z,0.72
2023-12-11T12:58:15.721Z,0.66
2023-12-11T13:02:34.474Z,0.62
2023-12-11T13:05:02.283Z,0.60
2023-12-11T13:07:30.400Z,0.64
2023-12-11T13:09:58.337Z,0.69
2023-12-11T13:12:29.769Z,0.70
2023-12-11T13:14:57.634Z,0.67
2023-12-11T13:17:25.351Z,0.61
2023-12-11T13:19:57.418Z,0.56
2023-12-11T13:22:37.562Z,0.51
2023-12-11T13:25:07.453Z,0.53
2023-12-11T13:34:12.773Z,0.61
2023-12-11T13:36:40.549Z,0.60
2023-12-11T13:39:09.766Z,0.59
2023-12-11T13:41:40.233Z,0.64
2023-12-11T13:44:07.895Z,0.70
2023-12-11T13:46:38.414Z,0.69
2023-12-11T13:49:06.241Z,0.69
2023-12-11T13:51:33.973Z,0.67
2023-12-11T13:54:01.737Z,0.63
2023-12-11T13:56:29.730Z,0.58
2023-12-11T13:58:57.517Z,0.61
2023-12-11T14:01:25.465Z,0.65
2023-12-11T14:03:54.061Z,0.65
2023-12-11T14:06:21.704Z,0.61
2023-12-11T14:08:49.341Z,0.53
2023-12-11T14:11:19.243Z,0.45
2023-12-11T14:13:47.263Z,0.43
2023-12-11T14:16:14.954Z,0.50
2023-12-11T14:18:42.902Z,0.49
2023-12-11T14:21:11.077Z,0.42
2023-12-11T14:23:39.713Z,0.34
2023-12-11T14:26:07.266Z,0.27
2023-12-11T14:28:34.866Z,0.20
2023-12-11T14:31:04.303Z,0.19
2023-12-11T14:33:32.152Z,0.26
2023-12-11T14:35:59.743Z,0.30
2023-12-11T14:38:28.129Z,0.30
2023-12-11T14:40:55.707Z,0.27
2023-12-11T14:43:24.442Z,0.20
2023-12-11T14:45:52.103Z,0.15
2023-12-11T14:48:19.765Z,0.18
2023-12-11T14:50:48.078Z,0.28
2023-12-11T14:53:15.874Z,0.35
2023-12-11T14:55:44.423Z,0.39
2023-12-11T14:58:12.238Z,0.40
2023-12-11T15:00:39.972Z,0.37
2023-12-11T15:03:07.564Z,0.33
2023-12-11T15:05:35.436Z,0.33
2023-12-11T15:08:06.424Z,0.34
2023-12-11T15:10:38.458Z,0.31
2023-12-11T15:13:07.780Z,0.26
2023-12-11T15:15:36.463Z,0.23
2023-12-11T15:18:04.277Z,0.22
2023-12-11T15:20:32.393Z,0.30
2023-12-11T15:23:00.620Z,0.41
2023-12-11T15:25:29.035Z,0.52
2023-12-11T15:27:57.413Z,0.56
2023-12-11T15:30:26.058Z,0.56
2023-12-11T15:32:53.714Z,0.57
2023-12-11T15:35:23.579Z,0.65
2023-12-11T15:37:52.185Z,0.76
2023-12-11T15:40:20.953Z,0.80
2023-12-11T15:42:50.690Z,0.79
2023-12-11T15:45:18.388Z,0.77
2023-12-11T15:48:00.762Z,0.73
2023-12-11T15:50:31.783Z,0.70
2023-12-11T15:53:00.155Z,0.75
2023-12-11T15:55:27.731Z,0.83
2023-12-11T15:57:55.465Z,0.88
2023-12-11T16:00:23.745Z,0.87
2023-12-11T16:02:53.935Z,0.83
2023-12-11T16:05:22.282Z,0.76
2023-12-11T16:07:50.025Z,0.66
2023-12-11T16:10:17.657Z,0.64
2023-12-11T16:12:45.544Z,0.60
2023-12-11T16:15:13.668Z,0.55
2023-12-11T16:17:41.269Z,0.46
2023-12-11T16:20:09.540Z,0.32
2023-12-11T16:22:38.315Z,0.24
2023-12-11T16:25:06.478Z,0.25
2023-12-11T16:27:34.869Z,0.25
2023-12-11T16:30:02.669Z,0.20
2023-12-11T16:32:30.819Z,0.16
2023-12-11T16:35:01.159Z,0.12
2023-12-11T16:37:28.900Z,0.10
2023-12-11T16:39:58.030Z,0.14
2023-12-11T16:42:28.643Z,0.24
2023-12-11T16:44:59.250Z,0.28
2023-12-11T16:47:30.599Z,0.24
2023-12-11T16:50:06.721Z,0.14
2023-12-11T16:52:39.861Z,0.07
2023-12-11T16:55:14.850Z,0.02
2023-12-11T16:57:44.024Z,0.04
2023-12-11T17:00:12.680Z,0.09
2023-12-11T17:02:41.511Z,0.12
2023-12-11T17:05:12.432Z,0.07
2023-12-11T17:07:40.673Z,0.03
2023-12-11T17:10:09.859Z,0.02
2023-12-11T17:12:40.526Z,0.01
2023-12-11T17:15:09.833Z,0.05
2023-12-11T17:17:38.019Z,0.12
2023-12-11T17:20:06.432Z,0.15
2023-12-11T17:22:40.321Z,0.14
2023-12-11T17:25:15.025Z,0.12
2023-12-11T17:27:44.999Z,0.08
2023-12-11T17:30:13.052Z,0.04
2023-12-11T17:32:40.964Z,0.04
2023-12-11T17:35:08.736Z,0.06
2023-12-11T17:37:36.877Z,0.05
2023-12-11T17:40:08.198Z,0.01
2023-12-11T17:43:01.934Z,-0.09
2023-12-11T17:45:29.562Z,-0.23
2023-12-11T17:47:57.268Z,-0.26
2023-12-11T17:50:28.659Z,-0.25
2023-12-11T17:52:56.331Z,-0.25
2023-12-11T17:55:24.556Z,-0.28
2023-12-11T17:57:55.386Z,-0.35
2023-12-11T18:00:23.261Z,-0.43
2023-12-11T18:02:51.308Z,-0.49
2023-12-11T18:05:22.068Z,-0.48
2023-12-11T18:07:51.255Z,-0.41
2023-12-11T18:10:20.805Z,-0.39
2023-12-11T18:12:54.503Z,-0.41
2023-12-11T18:15:23.035Z,-0.46
2023-12-11T18:17:55.160Z,-0.55
2023-12-11T18:20:26.396Z,-0.60
2023-12-11T18:22:54.146Z,-0.59
2023-12-11T18:25:25.122Z,-0.62
2023-12-11T18:27:56.686Z,-0.71
2023-12-11T18:30:26.242Z,-0.81
2023-12-11T18:32:57.194Z,-0.89
2023-12-11T18:35:26.386Z,-0.91
2023-12-11T18:37:54.468Z,-0.87
2023-12-11T18:40:23.155Z,-0.77
2023-12-11T18:42:50.843Z,-0.72
2023-12-11T18:45:19.895Z,-0.72
2023-12-11T18:47:49.016Z,-0.74
2023-12-11T18:50:26.886Z,-0.79
2023-12-11T18:52:58.074Z,-0.86
2023-12-11T18:55:32.585Z,-0.88
2023-12-11T18:58:00.294Z,-0.88
2023-12-11T19:00:32.218Z,-0.86
2023-12-11T19:03:02.092Z,-0.88
2023-12-11T19:05:30.021Z,-0.92
2023-12-11T19:07:57.794Z,-0.96
2023-12-11T19:10:27.658Z,-1.01
2023-12-11T19:12:57.041Z,-1.03
2023-12-11T19:15:28.367Z,-0.98
2023-12-11T19:22:04.149Z,-0.85
2023-12-11T19:24:33.022Z,-0.87
2023-12-11T19:27:03.841Z,-0.90
2023-12-11T19:29:31.791Z,-1.00
2023-12-11T19:32:00.061Z,-1.04
2023-12-11T19:34:27.759Z,-1.04
2023-12-11T19:36:55.459Z,-1.01
2023-12-11T19:39:23.038Z,-0.99
2023-12-11T19:41:54.401Z,-1.01
2023-12-11T19:44:23.886Z,-1.02
2023-12-11T19:46:52.547Z,-1.06
2023-12-11T19:49:20.434Z,-1.07
2023-12-11T19:51:48.147Z,-1.03
2023-12-11T19:54:15.748Z,-1.00
2023-12-11T19:56:45.164Z,-1.02
2023-12-11T19:59:17.719Z,-1.06
2023-12-11T20:01:45.418Z,-1.11
2023-12-11T20:04:13.193Z,-1.15
2023-12-11T20:06:42.487Z,-1.18
2023-12-11T20:09:10.096Z,-1.13
2023-12-11T20:11:37.830Z,-1.13
2023-12-11T20:14:05.450Z,-1.16
2023-12-11T20:16:33.308Z,-1.22
2023-12-11T20:19:01.399Z,-1.29
2023-12-11T20:21:29.432Z,-1.35
2023-12-11T20:23:57.074Z,-1.40
2023-12-11T20:26:26.578Z,-1.40
2023-12-11T20:28:54.133Z,-1.35
2023-12-11T20:31:21.744Z,-1.34
2023-12-11T20:33:52.091Z,-1.38
2023-12-11T20:36:20.285Z,-1.44
2023-12-11T20:38:50.613Z,-1.49
2023-12-11T20:41:22.185Z,-1.50
2023-12-11T20:43:52.979Z,-1.41
2023-12-11T20:46:25.320Z,-1.27
2023-12-11T20:48:56.045Z,-1.19
2023-12-11T20:51:26.013Z,-1.18
2023-12-11T20:53:54.099Z,-1.21
2023-12-11T20:56:30.853Z,-1.26
2023-12-11T20:59:01.973Z,-1.29
2023-12-11T21:01:34.659Z,-1.27
2023-12-11T21:04:05.919Z,-1.20
2023-12-11T21:06:36.789Z,-1.17
2023-12-11T21:09:11.996Z,-1.17
2023-12-11T21:11:39.721Z,-1.17
2023-12-11T21:14:07.393Z,-1.21
2023-12-11T21:16:37.782Z,-1.29
2023-12-11T21:19:06.541Z,-1.40
2023-12-11T21:21:40.331Z,-1.43
2023-12-11T21:24:10.123Z,-1.41
2023-12-11T21:26:37.993Z,-1.39
2023-12-11T21:29:05.821Z,-1.42
2023-12-11T21:31:36.671Z,-1.44
2023-12-11T21:34:06.779Z,-1.45
2023-12-11T21:36:34.771Z,-1.50
2023-12-11T21:39:06.673Z,-1.50
2023-12-11T21:41:34.890Z,-1.44
2023-12-11T21:44:02.713Z,-1.40
2023-12-11T21:46:33.466Z,-1.43
2023-12-11T21:49:02.753Z,-1.50
2023-12-11T21:51:31.091Z,-1.58
2023-12-11T21:53:58.900Z,-1.66
2023-12-11T21:56:27.128Z,-1.76
2023-12-11T21:58:54.903Z,-1.82
2023-12-11T22:01:22.532Z,-1.82
2023-12-11T22:03:50.321Z,-1.81
2023-12-11T22:06:19.268Z,-1.85
2023-12-11T22:08:47.144Z,-1.89
2023-12-11T22:11:15.401Z,-1.91
2023-12-11T22:13:43.253Z,-1.95
2023-12-11T22:16:10.819Z,-2.00
2023-12-11T22:18:38.831Z,-2.00
2023-12-11T22:21:06.678Z,-1.93
2023-12-11T22:23:34.906Z,-1.83
2023-12-11T22:26:02.533Z,-1.79
2023-12-11T22:28:30.168Z,-1.78
2023-12-11T22:30:57.751Z,-1.81
2023-12-11T22:33:25.269Z,-1.85
2023-12-11T22:35:52.999Z,-1.86
2023-12-11T22:38:20.890Z,-1.81
2023-12-11T22:40:49.123Z,-1.74
2023-12-11T22:43:16.932Z,-1.70
2023-12-11T22:45:44.531Z,-1.74
2023-12-11T22:48:15.000Z,-1.80
2023-12-11T22:50:43.118Z,-1.88
2023-12-11T22:53:11.053Z,-1.92
2023-12-11T22:55:38.669Z,-1.88
2023-12-11T22:58:14.033Z,-1.86
2023-12-11T23:00:44.483Z,-1.90
2023-12-11T23:03:12.319Z,-1.94
2023-12-11T23:05:40.808Z,-2.01
2023-12-11T23:08:08.337Z,-2.07
2023-12-11T23:10:36.012Z,-2.06
2023-12-11T23:13:03.680Z,-2.06
2023-12-11T23:15:32.992Z,-2.07
2023-12-11T23:18:04.885Z,-2.06
2023-12-11T23:20:32.644Z,-2.05
2023-12-11T23:23:02.346Z,-2.02
2023-12-11T23:25:29.900Z,-2.01
2023-12-11T23:27:57.555Z,-1.99
2023-12-11T23:30:25.108Z,-1.96
2023-12-11T23:32:52.978Z,-1.94
2023-12-11T23:35:20.749Z,-1.92
2023-12-11T23:37:49.527Z,-1.92
2023-12-11T23:40:17.221Z,-1.96
2023-12-11T23:42:45.938Z,-1.98
2023-12-11T23:45:13.489Z,-1.93
2023-12-11T23:47:41.096Z,-1.85
2023-12-11T23:50:09.670Z,-1.79
2023-12-11T23:52:37.783Z,-1.80
2023-12-11T23:55:05.811Z,-1.87
2023-12-11T23:57:34.470Z,-1.92
